Time,TemperatureF,DewpointF,PressureIn,WindDirection,WindDirectionDegrees,WindSpeedMPH,WindSpeedGustMPH,Humidity,HourlyPrecipIn,Conditions,Clouds,dailyrainin,SoftwareType,DateUTC
2013-03-30 00:05:00,41.1,36.0,30.19,SW,235,0.0,0.0,82,0.00,,,0.00,weatherlink.com 1.10,2013-03-30 04:05:00,
2013-03-30 00:20:00,41.1,36.0,30.19,SW,235,0.0,0.0,83,0.00,,,0.00,weatherlink.com 1.10,2013-03-30 04:20:00,
2013-03-30 00:35:00,41.0,36.0,30.19,SW,235,0.0,0.0,82,0.00,,,0.00,weatherlink.com 1.10,2013-03-30 04:35:00,
2013-03-30 00:50:00,40.7,36.0,30.19,SW,235,0.0,0.0,84,0.00,,,0.00,weatherlink.com 1.10,2013-03-30 04:50:00,
2013-03-30 01:05:00,40.3,36.0,30.19,SW,235,0.0,0.0,85,0.00,,,0.00,weatherlink.com 1.10,2013-03-30 05:05:00,
2013-03-30 01:20:00,40.7,37.0,30.19,SW,235,0.0,0.0,86,0.00,,,0.00,weatherlink.com 1.10,2013-03-30 05:20:00,
2013-03-30 01:35:00,40.4,37.0,30.19,SW,235,0.0,0.0,86,0.00,,,0.00,weatherlink.com 1.10,2013-03-30 05:35:00,
2013-03-30 01:50:00,39.6,36.0,30.19,SW,235,0.0,0.0,86,0.00,,,0.00,weatherlink.com 1.10,2013-03-30 05:50:00,
2013-03-30 02:04:00,39.2,35.0,30.18,SW,235,0.0,1.0,86,0.00,,,0.00,weatherlink.com 1.10,2013-03-30 06:04:00,
2013-03-30 02:19:00,38.6,35.0,30.18,SW,235,0.0,0.0,86,0.00,,,0.00,weatherlink.com 1.10,2013-03-30 06:19:00,
2013-03-30 02:34:00,38.8,35.0,30.18,SW,235,0.0,0.0,87,0.00,,,0.00,weatherlink.com 1.10,2013-03-30 06:34:00,
2013-03-30 02:49:00,38.4,34.0,30.18,SW,235,0.0,0.0,85,0.00,,,0.00,weatherlink.com 1.10,2013-03-30 06:49:00,
2013-03-30 03:04:00,38.2,34.0,30.18,SW,235,0.0,0.0,84,0.00,,,0.00,weatherlink.com 1.10,2013-03-30 07:04:00,
2013-03-30 03:19:00,38.2,34.0,30.18,SW,235,0.0,0.0,84,0.00,,,0.00,weatherlink.com 1.10,2013-03-30 07:19:00,
2013-03-30 03:34:00,38.1,35.0,30.18,SW,235,2.0,2.0,87,0.00,,,0.00,weatherlink.com 1.10,2013-03-30 07:34:00,
2013-03-30 03:49:00,38.2,34.0,30.18,SW,235,0.0,0.0,83,0.00,,,0.00,weatherlink.com 1.10,2013-03-30 07:49:00,
2013-03-30 04:04:00,37.8,33.0,30.18,SW,235,0.0,0.0,84,0.00,,,0.00,weatherlink.com 1.10,2013-03-30 08:04:00,
2013-03-30 04:19:00,37.0,33.0,30.18,SW,235,0.0,0.0,86,0.00,,,0.00,weatherlink.com 1.10,2013-03-30 08:19:00,
2013-03-30 04:34:00,37.0,34.0,30.18,SW,235,0.0,0.0,87,0.00,,,0.00,weatherlink.com 1.10,2013-03-30 08:34:00,
2013-03-30 04:49:00,37.1,34.0,30.18,SW,235,0.0,0.0,88,0.00,,,0.00,weatherlink.com 1.10,2013-03-30 08:49:00,
2013-03-30 05:04:00,37.0,34.0,30.18,SW,235,0.0,0.0,88,0.00,,,0.00,weatherlink.com 1.10,2013-03-30 09:04:00,
2013-03-30 05:19:00,36.7,34.0,30.18,SW,235,0.0,0.0,89,0.00,,,0.00,weatherlink.com 1.10,2013-03-30 09:19:00,
2013-03-30 05:34:00,36.5,34.0,30.18,SW,235,0.0,0.0,89,0.00,,,0.00,weatherlink.com 1.10,2013-03-30 09:34:00,
2013-03-30 05:49:00,36.7,34.0,30.18,SW,235,0.0,0.0,89,0.00,,,0.00,weatherlink.com 1.10,2013-03-30 09:49:00,
2013-03-30 06:04:00,37.0,34.0,30.19,SW,235,0.0,0.0,89,0.00,,,0.00,weatherlink.com 1.10,2013-03-30 10:04:00,
2013-03-30 06:19:00,37.1,34.0,30.19,SW,235,0.0,0.0,89,0.00,,,0.00,weatherlink.com 1.10,2013-03-30 10:19:00,
2013-03-30 06:34:00,37.1,33.0,30.19,SW,235,0.0,0.0,86,0.00,,,0.00,weatherlink.com 1.10,2013-03-30 10:34:00,
2013-03-30 06:49:00,37.7,35.0,30.19,SW,235,0.0,0.0,88,0.00,,,0.00,weatherlink.com 1.10,2013-03-30 10:49:00,
2013-03-30 07:04:00,37.9,34.0,30.20,SW,235,0.0,0.0,87,0.00,,,0.00,weatherlink.com 1.10,2013-03-30 11:04:00,
2013-03-30 07:19:00,37.8,34.0,30.20,SW,235,0.0,0.0,86,0.00,,,0.00,weatherlink.com 1.10,2013-03-30 11:19:00,
2013-03-30 07:35:00,38.0,34.0,30.21,SW,235,0.0,0.0,85,0.00,,,0.00,weatherlink.com 1.10,2013-03-30 11:35:00,
2013-03-30 07:50:00,38.2,34.0,30.21,SW,235,0.0,0.0,85,0.00,,,0.00,weatherlink.com 1.10,2013-03-30 11:50:00,
2013-03-30 08:05:00,38.9,35.0,30.21,SW,235,0.0,0.0,86,0.00,,,0.00,weatherlink.com 1.10,2013-03-30 12:05:00,
2013-03-30 08:20:00,40.1,36.0,30.21,SW,235,0.0,0.0,86,0.00,,,0.00,weatherlink.com 1.10,2013-03-30 12:20:00,
2013-03-30 08:35:00,41.9,37.0,30.22,SW,235,0.0,0.0,82,0.00,,,0.00,weatherlink.com 1.10,2013-03-30 12:35:00,
2013-03-30 08:50:00,45.2,36.0,30.22,WNW,284,0.0,2.0,69,0.00,,,0.00,weatherlink.com 1.10,2013-03-30 12:50:00,
2013-03-30 09:05:00,47.4,34.0,30.22,WNW,286,2.0,3.0,61,0.00,,,0.00,weatherlink.com 1.10,2013-03-30 13:05:00,
2013-03-30 09:20:00,48.4,34.0,30.22,WNW,286,0.0,2.0,57,0.00,,,0.00,weatherlink.com 1.10,2013-03-30 13:20:00,
2013-03-30 09:35:00,48.3,34.0,30.22,WNW,286,0.0,1.0,58,0.00,,,0.00,weatherlink.com 1.10,2013-03-30 13:35:00,
2013-03-30 09:50:00,49.7,34.0,30.22,WNW,286,0.0,2.0,55,0.00,,,0.00,weatherlink.com 1.10,2013-03-30 13:50:00,
2013-03-30 10:05:00,51.2,33.0,30.22,WNW,284,1.0,3.0,50,0.00,,,0.00,weatherlink.com 1.10,2013-03-30 14:05:00,
2013-03-30 10:20:00,51.5,32.0,30.22,West,274,2.0,4.0,48,0.00,,,0.00,weatherlink.com 1.10,2013-03-30 14:20:00,
2013-03-30 10:35:00,51.9,31.0,30.22,WNW,289,0.0,4.0,45,0.00,,,0.00,weatherlink.com 1.10,2013-03-30 14:35:00,
2013-03-30 10:50:00,52.9,31.0,30.22,WNW,282,3.0,4.0,44,0.00,,,0.00,weatherlink.com 1.10,2013-03-30 14:50:00,
2013-03-30 11:05:00,53.5,31.0,30.22,WNW,300,0.0,4.0,43,0.00,,,0.00,weatherlink.com 1.10,2013-03-30 15:05:00,
2013-03-30 11:20:00,54.0,31.0,30.21,North,349,0.0,5.0,41,0.00,,,0.00,weatherlink.com 1.10,2013-03-30 15:20:00,
2013-03-30 11:35:00,54.3,32.0,30.21,WNW,282,1.0,4.0,43,0.00,,,0.00,weatherlink.com 1.10,2013-03-30 15:35:00,
2013-03-30 11:50:00,54.7,30.0,30.20,NW,306,2.0,4.0,39,0.00,,,0.00,weatherlink.com 1.10,2013-03-30 15:50:00,
2013-03-30 12:05:00,54.8,30.0,30.20,NW,305,1.0,4.0,39,0.00,,,0.00,weatherlink.com 1.10,2013-03-30 16:05:00,
2013-03-30 12:20:00,55.1,30.0,30.20,WNW,296,0.0,3.0,38,0.00,,,0.00,weatherlink.com 1.10,2013-03-30 16:20:00,
2013-03-30 12:35:00,55.3,31.0,30.19,West,279,2.0,4.0,39,0.00,,,0.00,weatherlink.com 1.10,2013-03-30 16:35:00,
2013-03-30 12:50:00,56.0,32.0,30.19,WSW,246,0.0,3.0,41,0.00,,,0.00,weatherlink.com 1.10,2013-03-30 16:50:00,
2013-03-30 13:05:00,56.1,31.0,30.18,ENE,63,1.0,3.0,39,0.00,,,0.00,weatherlink.com 1.10,2013-03-30 17:05:00,
2013-03-30 13:20:00,55.5,30.0,30.18,ENE,57,2.0,4.0,38,0.00,,,0.00,weatherlink.com 1.10,2013-03-30 17:20:00,
2013-03-30 13:35:00,56.2,28.0,30.17,South,184,1.0,6.0,34,0.00,,,0.00,weatherlink.com 1.10,2013-03-30 17:35:00,
2013-03-30 13:50:00,57.5,30.0,30.17,WSW,248,4.0,5.0,35,0.00,,,0.00,weatherlink.com 1.10,2013-03-30 17:50:00,
2013-03-30 14:05:00,57.3,28.0,30.16,SW,221,0.0,5.0,33,0.00,,,0.00,weatherlink.com 1.10,2013-03-30 18:05:00,
2013-03-30 14:20:00,57.2,29.0,30.16,SW,217,0.0,4.0,34,0.00,,,0.00,weatherlink.com 1.10,2013-03-30 18:20:00,
2013-03-30 14:35:00,58.2,30.0,30.15,WSW,246,0.0,3.0,34,0.00,,,0.00,weatherlink.com 1.10,2013-03-30 18:35:00,
2013-03-30 14:50:00,57.3,30.0,30.14,ENE,78,2.0,3.0,35,0.00,,,0.00,weatherlink.com 1.10,2013-03-30 18:50:00,
2013-03-30 15:06:00,58.0,31.0,30.14,NE,47,3.0,3.0,36,0.00,,,0.00,weatherlink.com 1.10,2013-03-30 19:06:00,
2013-03-30 15:21:00,58.5,32.0,30.13,WSW,246,0.0,4.0,37,0.00,,,0.00,weatherlink.com 1.10,2013-03-30 19:21:00,
2013-03-30 15:36:00,58.7,31.0,30.13,ENE,65,2.0,5.0,35,0.00,,,0.00,weatherlink.com 1.10,2013-03-30 19:36:00,
2013-03-30 15:51:00,57.9,30.0,30.13,NE,51,0.0,3.0,35,0.00,,,0.00,weatherlink.com 1.10,2013-03-30 19:51:00,
2013-03-30 16:06:00,58.0,30.0,30.12,ESE,102,0.0,3.0,35,0.00,,,0.00,weatherlink.com 1.10,2013-03-30 20:06:00,
2013-03-30 16:21:00,57.3,30.0,30.12,NNW,348,1.0,3.0,36,0.00,,,0.00,weatherlink.com 1.10,2013-03-30 20:21:00,
2013-03-30 16:36:00,58.4,31.0,30.13,East,82,0.0,2.0,35,0.00,,,0.00,weatherlink.com 1.10,2013-03-30 20:36:00,
2013-03-30 16:51:00,57.8,32.0,30.13,South,182,5.0,5.0,38,0.00,,,0.00,weatherlink.com 1.10,2013-03-30 20:51:00,
2013-03-30 17:21:00,58.4,28.0,30.12,SW,232,1.0,3.0,32,0.00,,,0.00,weatherlink.com 1.10,2013-03-30 21:21:00,
2013-03-30 17:51:00,57.8,31.0,30.12,South,181,1.0,5.0,36,0.00,,,0.00,weatherlink.com 1.10,2013-03-30 21:51:00,
2013-03-30 18:21:00,56.1,30.0,30.12,South,188,0.0,4.0,37,0.00,,,0.00,weatherlink.com 1.10,2013-03-30 22:21:00,
2013-03-30 18:36:00,55.1,31.0,30.12,South,188,0.0,1.0,40,0.00,,,0.00,weatherlink.com 1.10,2013-03-30 22:36:00,
2013-03-30 19:36:00,51.0,32.0,30.12,South,188,0.0,0.0,49,0.00,,,0.00,weatherlink.com 1.10,2013-03-30 23:36:00,
2013-03-30 19:51:00,49.8,33.0,30.12,South,188,0.0,0.0,53,0.00,,,0.00,weatherlink.com 1.10,2013-03-30 23:51:00,
2013-03-30 20:36:00,45.8,34.0,30.14,South,188,0.0,0.0,63,0.00,,,0.00,weatherlink.com 1.10,2013-03-31 00:36:00,
2013-03-30 21:06:00,44.4,36.0,30.15,SSW,196,0.0,0.0,71,0.00,,,0.00,weatherlink.com 1.10,2013-03-31 01:06:00,
2013-03-30 21:21:00,44.1,34.0,30.15,SSW,196,0.0,0.0,68,0.00,,,0.00,weatherlink.com 1.10,2013-03-31 01:21:00,
2013-03-30 21:36:00,44.2,35.0,30.16,SSW,196,0.0,0.0,70,0.00,,,0.00,weatherlink.com 1.10,2013-03-31 01:36:00,
2013-03-30 22:21:00,43.6,37.0,30.15,SSW,196,0.0,0.0,78,0.00,,,0.00,weatherlink.com 1.10,2013-03-31 02:21:00,
2013-03-30 22:36:00,43.6,37.0,30.15,SSW,196,0.0,0.0,78,0.00,,,0.00,weatherlink.com 1.10,2013-03-31 02:36:00,
2013-03-30 22:51:00,43.4,37.0,30.15,SSW,196,0.0,0.0,79,0.00,,,0.00,weatherlink.com 1.10,2013-03-31 02:51:00,
2013-03-30 23:21:00,43.4,38.0,30.14,SSW,196,0.0,0.0,81,0.00,,,0.00,weatherlink.com 1.10,2013-03-31 03:21:00,
2013-03-30 23:36:00,43.8,37.0,30.14,SSW,196,0.0,1.0,77,0.00,,,0.00,weatherlink.com 1.10,2013-03-31 03:36:00,